Time;durP1;ratioP1;P1;durP2;ratioP2;P2;SDS_P1;SDS_P2;PMS_P1;PMS_P2;Temp;Humidity;BMP_temperature;BMP_pressure;BME280_temperature;BME280_humidity;BME280_pressure;Samples;Min_cycle;Max_cycle;Signal;HPM_P1;HPM_P2
2021/07/27 00:01:55;;;;;;;7.25;4.13;;;;;;;26.16;49.84;100963.00;5052643;28;20024;-60
2021/07/27 00:04:20;;;;;;;8.65;3.85;;;;;;;26.17;49.95;100961.09;5053322;28;20017;-60
2021/07/27 00:06:46;;;;;;;9.00;4.03;;;;;;;26.16;49.73;100962.19;5052976;28;20037;-61
2021/07/27 00:09:11;;;;;;;7.40;4.03;;;;;;;26.16;49.31;100962.19;5053987;28;20061;-61
2021/07/27 00:11:36;;;;;;;10.65;3.67;;;;;;;26.15;49.72;100955.84;5053753;28;20021;-61
2021/07/27 00:14:02;;;;;;;7.18;3.67;;;;;;;26.14;50.03;100961.56;5052594;28;20032;-60
2021/07/27 00:16:27;;;;;;;5.22;3.42;;;;;;;26.14;49.89;100953.31;5036075;28;20485;-61
2021/07/27 00:18:52;;;;;;;9.90;4.68;;;;;;;26.12;49.69;100939.81;5053906;28;20049;-61
2021/07/27 00:21:18;;;;;;;9.25;4.05;;;;;;;26.13;49.78;100954.38;5053997;28;20034;-61
2021/07/27 00:23:46;;;;;;;7.82;3.67;;;;;;;26.13;49.77;100946.13;5054022;28;20131;-61
2021/07/27 00:26:13;;;;;;;10.77;4.63;;;;;;;26.10;50.30;100947.44;5054246;28;20051;-61
2021/07/27 00:28:39;;;;;;;10.82;3.53;;;;;;;26.08;49.87;100948.69;5053852;28;20020;-61
2021/07/27 00:31:04;;;;;;;7.65;4.40;;;;;;;26.07;50.17;100947.88;5053459;28;20384;-60
2021/07/27 00:33:29;;;;;;;10.82;5.25;;;;;;;25.99;50.40;100940.75;5053431;28;20473;-61
2021/07/27 00:35:55;;;;;;;6.82;4.65;;;;;;;26.06;50.18;100962.69;5051992;28;20087;-61
2021/07/27 00:38:22;;;;;;;12.77;4.72;;;;;;;26.01;50.12;100951.53;5053486;28;20107;-61
2021/07/27 00:40:48;;;;;;;8.23;4.38;;;;;;;26.01;50.25;100959.78;5052569;28;20044;-61
2021/07/27 00:43:18;;;;;;;7.47;4.10;;;;;;;25.97;49.99;100953.91;5053440;28;20484;-61
2021/07/27 00:45:43;;;;;;;8.75;4.70;;;;;;;25.96;50.33;100959.63;5053708;28;20473;-61
2021/07/27 00:48:09;;;;;;;7.80;4.65;;;;;;;25.92;50.44;100953.75;5053692;28;20028;-60
2021/07/27 00:50:35;;;;;;;12.13;4.50;;;;;;;25.92;50.43;100951.00;5053296;28;20025;-61
2021/07/27 00:53:01;;;;;;;11.75;5.18;;;;;;;25.90;50.13;100957.78;5052804;28;20108;-60
2021/07/27 00:55:28;;;;;;;12.15;5.70;;;;;;;25.87;49.88;100958.22;5053603;28;20104;-61
2021/07/27 00:57:53;;;;;;;11.05;5.28;;;;;;;25.81;50.26;100946.25;5052448;28;20029;-61
2021/07/27 01:00:23;;;;;;;12.77;6.10;;;;;;;25.81;50.69;100938.00;5053918;28;20100;-61
2021/07/27 01:02:48;;;;;;;10.75;5.85;;;;;;;25.85;50.14;100947.47;5053245;28;20094;-61
2021/07/27 01:05:14;;;;;;;14.73;6.72;;;;;;;25.84;50.47;100943.06;5053545;28;20021;-61
2021/07/27 01:07:40;;;;;;;13.13;7.00;;;;;;;25.84;50.52;100940.31;5052408;28;20025;-61
2021/07/27 01:10:08;;;;;;;10.00;6.10;;;;;;;25.83;50.28;100941.34;5051871;28;20098;-61
2021/07/27 01:12:33;;;;;;;15.88;7.22;;;;;;;25.83;50.19;100946.00;5053386;28;20043;-60
2021/07/27 01:15:03;;;;;;;15.85;6.97;;;;;;;25.77;50.55;100936.78;5055003;28;20108;-61
2021/07/27 01:17:28;;;;;;;16.13;7.18;;;;;;;25.79;50.46;100934.66;5057006;28;20037;-61
2021/07/27 01:19:59;;;;;;;13.38;7.10;;;;;;;25.79;50.22;100929.16;5057979;28;20349;-61
2021/07/27 01:43:46;;;;;;;17.38;9.38;;;;;;;25.62;50.70;100919.84;5056943;28;20031;-61
2021/07/27 01:46:12;;;;;;;21.58;9.75;;;;;;;25.59;50.45;100920.28;5056737;28;20457;-60
2021/07/27 01:48:38;;;;;;;19.58;8.63;;;;;;;25.60;50.51;100918.38;5056396;28;20025;-61
2021/07/27 01:51:03;;;;;;;20.60;9.85;;;;;;;25.58;50.70;100921.34;5056685;28;20033;-60
2021/07/27 01:53:49;;;;;;;17.33;9.25;;;;;;;25.56;50.51;100917.13;5056356;28;20029;-61
2021/07/27 01:56:15;;;;;;;17.17;8.82;;;;;;;25.53;50.25;100923.06;5056365;28;20036;-62
2021/07/27 01:58:40;;;;;;;18.58;9.90;;;;;;;25.47;50.20;100913.84;5055159;28;20147;-62
2021/07/27 02:01:06;;;;;;;22.52;11.43;;;;;;;25.38;50.49;100904.16;5054970;28;20115;-63
2021/07/27 02:03:31;;;;;;;16.35;9.05;;;;;;;25.42;50.72;100913.66;5055329;28;20063;-63
2021/07/27 02:05:57;;;;;;;22.60;9.80;;;;;;;25.37;50.33;100914.31;5056485;28;20021;-60
2021/07/27 02:08:22;;;;;;;21.40;8.98;;;;;;;25.36;50.55;100917.28;5054916;28;20021;-60
2021/07/27 02:10:58;;;;;;;21.30;8.90;;;;;;;25.33;50.80;100906.75;5056298;28;20017;-61
2021/07/27 02:13:29;;;;;;;21.40;9.02;;;;;;;25.33;50.86;100901.25;5056299;28;20496;-61
2021/07/27 02:15:54;;;;;;;20.63;8.68;;;;;;;25.32;50.86;100900.41;5056351;28;20484;-61
2021/07/27 02:18:21;;;;;;;17.55;8.55;;;;;;;25.26;50.39;100895.84;5055984;28;20033;-60
2021/07/27 02:20:46;;;;;;;23.55;9.02;;;;;;;25.30;50.56;100905.28;5054918;28;20056;-61
2021/07/27 02:23:12;;;;;;;14.25;8.27;;;;;;;25.28;50.24;100906.59;5056038;28;20065;-60
2021/07/27 02:25:37;;;;;;;17.33;8.55;;;;;;;25.23;50.25;100917.38;5054276;28;20040;-61
2021/07/27 02:28:02;;;;;;;17.33;8.23;;;;;;;25.26;50.66;100933.41;5054863;28;20032;-61
2021/07/27 02:30:32;;;;;;;17.73;9.20;;;;;;;25.26;50.46;100927.91;5055637;28;20485;-61
2021/07/27 02:32:57;;;;;;;17.67;8.05;;;;;;;25.25;50.57;100937.19;5055612;28;20055;-60
2021/07/27 02:35:23;;;;;;;18.50;8.38;;;;;;;25.24;50.97;100930.03;5055487;28;20120;-61
2021/07/27 02:37:49;;;;;;;18.83;9.05;;;;;;;25.23;50.42;100922.88;5055836;28;20029;-60
2021/07/27 02:40:14;;;;;;;17.13;8.00;;;;;;;25.19;50.53;100916.13;5055815;28;20027;-61
2021/07/27 02:42:39;;;;;;;16.30;8.52;;;;;;;25.14;50.60;100919.56;5055833;28;20025;-60
2021/07/27 02:45:14;;;;;;;23.10;9.13;;;;;;;25.13;50.51;100928.84;5055383;28;20079;-61
2021/07/27 02:47:40;;;;;;;16.52;7.95;;;;;;;25.14;50.79;100929.69;5055701;28;20354;-60
2021/07/27 02:50:07;;;;;;;16.83;8.98;;;;;;;25.12;50.89;100927.19;5055538;28;20443;-60
2021/07/27 02:52:36;;;;;;;17.63;8.77;;;;;;;25.07;50.89;100924.22;5055243;28;20032;-60
2021/07/27 02:55:02;;;;;;;17.50;8.02;;;;;;;25.09;50.34;100933.09;5054018;28;20439;-63
2021/07/27 02:57:28;;;;;;;14.52;8.68;;;;;;;25.08;50.41;100930.56;5055228;28;20021;-63
2021/07/27 02:59:56;;;;;;;16.60;7.85;;;;;;;25.08;50.88;100927.81;5055420;28;20082;-63
2021/07/27 03:02:21;;;;;;;18.88;8.43;;;;;;;25.07;50.49;100920.69;5055328;28;20029;-63
2021/07/27 03:04:46;;;;;;;22.13;8.98;;;;;;;25.05;50.89;100917.28;5055333;28;20033;-63
2021/07/27 03:07:19;;;;;;;15.32;8.38;;;;;;;25.04;50.61;100908.25;5055274;28;20369;-63
2021/07/27 03:12:28;;;;;;;19.23;8.02;;;;;;;25.01;50.47;100916.06;5054878;28;20055;-63
2021/07/27 03:15:00;;;;;;;18.33;7.95;;;;;;;25.02;50.46;100920.47;5055091;28;20021;-63
2021/07/27 03:17:26;;;;;;;;;;;;;;;25.01;50.17;100918.81;5055505;28;20078;-60
2021/07/27 03:19:51;;;;;;;16.52;7.30;;;;;;;25.01;50.78;100914.19;5055219;28;19916;-61
2021/07/27 03:22:18;;;;;;;16.90;8.25;;;;;;;25.00;50.78;100917.13;5055073;28;20033;-60
2021/07/27 03:24:43;;;;;;;14.50;7.00;;;;;;;24.98;50.15;100908.28;5055010;28;20029;-60
2021/07/27 03:27:08;;;;;;;14.73;7.28;;;;;;;24.97;50.83;100912.09;5055041;28;20040;-63
2021/07/27 03:29:34;;;;;;;13.23;7.55;;;;;;;24.95;50.74;100908.72;5054465;28;20167;-63
2021/07/27 03:32:00;;;;;;;14.68;8.25;;;;;;;24.92;50.87;100904.53;5054568;28;20481;-60
2021/07/27 03:34:25;;;;;;;16.98;8.07;;;;;;;24.92;50.80;100900.94;5054465;28;20025;-61
2021/07/27 03:36:50;;;;;;;15.38;7.75;;;;;;;24.90;50.48;100902.00;5054100;28;20049;-60
2021/07/27 03:39:16;;;;;;;15.93;7.13;;;;;;;24.89;50.47;100897.59;5053520;28;20074;-60
2021/07/27 03:41:42;;;;;;;16.65;7.30;;;;;;;24.88;51.17;100895.91;5054595;28;20028;-63
2021/07/27 03:44:07;;;;;;;12.23;6.95;;;;;;;24.87;50.91;100896.94;5054294;28;20103;-63
2021/07/27 03:46:33;;;;;;;16.88;6.65;;;;;;;24.85;50.74;100893.59;5054559;28;20537;-63
2021/07/27 03:48:58;;;;;;;12.30;7.07;;;;;;;24.86;51.05;100903.50;5054039;28;20028;-62
2021/07/27 03:51:23;;;;;;;19.45;6.90;;;;;;;24.86;50.74;100909.00;5054499;28;20405;-63
2021/07/27 03:53:49;;;;;;;11.32;6.90;;;;;;;24.84;50.76;100896.56;5054123;28;20363;-64
2021/07/27 03:56:14;;;;;;;13.77;6.45;;;;;;;24.87;51.29;100902.44;5054194;28;20060;-63
2021/07/27 03:58:43;;;;;;;11.95;6.63;;;;;;;24.88;50.83;100909.59;5054303;28;20032;-63
2021/07/27 04:01:08;;;;;;;14.30;6.47;;;;;;;24.88;50.70;100898.66;5054229;28;20025;-63
2021/07/27 04:03:34;;;;;;;11.50;6.10;;;;;;;24.93;50.97;100902.63;5053156;28;20331;-63
2021/07/27 04:05:59;;;;;;;13.63;7.00;;;;;;;24.89;50.77;100883.88;5054105;28;20021;-63
2021/07/27 04:08:24;;;;;;;15.52;7.22;;;;;;;24.96;51.17;100896.72;5054142;28;20028;-63
2021/07/27 04:10:50;;;;;;;16.50;7.38;;;;;;;24.97;50.63;100892.91;5054341;28;20040;-63
2021/07/27 04:13:16;;;;;;;15.10;7.28;;;;;;;24.98;51.02;100886.38;5054305;28;20033;-62
2021/07/27 04:15:41;;;;;;;14.40;8.05;;;;;;;25.03;50.99;100902.97;5053741;28;20470;-63
2021/07/27 04:18:07;;;;;;;12.55;6.78;;;;;;;25.01;50.94;100891.41;5053818;28;20017;-63
2021/07/27 04:20:32;;;;;;;12.90;6.55;;;;;;;25.08;51.14;100898.50;5054035;28;20025;-63
2021/07/27 04:22:57;;;;;;;14.07;6.70;;;;;;;25.12;50.89;100905.25;5052746;28;20035;-63
2021/07/27 04:25:23;;;;;;;12.98;6.95;;;;;;;25.13;51.23;100904.16;5053949;28;20466;-60
2021/07/27 04:27:48;;;;;;;11.00;6.72;;;;;;;25.17;50.56;100902.66;5054193;28;20412;-60
2021/07/27 04:30:13;;;;;;;13.40;6.30;;;;;;;25.18;50.61;100901.59;5053535;28;20025;-60
2021/07/27 04:32:39;;;;;;;13.63;6.40;;;;;;;25.21;50.83;100903.06;5053700;28;20108;-61
2021/07/27 04:35:08;;;;;;;19.77;7.35;;;;;;;25.24;50.72;100899.84;5053718;28;20055;-60
2021/07/27 04:37:34;;;;;;;14.02;6.55;;;;;;;25.24;50.92;100902.59;5052557;28;20071;-60
2021/07/27 04:39:59;;;;;;;14.90;7.45;;;;;;;25.25;50.66;100902.38;5052298;28;20017;-60
2021/07/27 04:42:24;;;;;;;14.50;6.75;;;;;;;25.26;50.73;100908.72;5053658;28;20029;-60
2021/07/27 04:44:50;;;;;;;13.80;6.22;;;;;;;25.22;50.97;100894.59;5054283;28;20063;-61
2021/07/27 04:47:15;;;;;;;15.18;6.72;;;;;;;25.25;50.91;100905.13;5053696;28;20031;-61
2021/07/27 04:49:41;;;;;;;9.73;6.57;;;;;;;25.28;50.85;100898.34;5055383;28;20053;-61
2021/07/27 04:52:06;;;;;;;13.85;7.50;;;;;;;25.26;50.48;100893.09;5057861;28;20035;-61
2021/07/27 04:54:41;;;;;;;16.73;7.03;;;;;;;25.26;51.02;100900.50;5057592;28;20100;-61
2021/07/27 04:57:10;;;;;;;15.00;7.28;;;;;;;25.26;50.77;100893.09;5057762;28;20444;-61
2021/07/27 04:59:35;;;;;;;16.05;7.65;;;;;;;25.27;50.99;100896.66;5056563;28;20049;-60
2021/07/27 05:02:00;;;;;;;12.07;6.95;;;;;;;25.27;50.80;100897.50;5057650;28;20477;-60
2021/07/27 05:04:26;;;;;;;13.48;7.43;;;;;;;25.28;50.81;100895.63;5056515;28;20439;-61
2021/07/27 05:06:52;;;;;;;12.88;6.82;;;;;;;25.33;51.23;100893.03;5057549;28;20028;-61
2021/07/27 05:09:17;;;;;;;11.32;6.38;;;;;;;25.36;50.57;100892.59;5057394;28;20465;-60
2021/07/27 05:11:42;;;;;;;10.68;6.35;;;;;;;25.36;50.62;100904.41;5057129;28;20487;-61
2021/07/27 05:14:08;;;;;;;11.40;5.50;;;;;;;25.35;50.84;100899.97;5057751;28;20553;-61
2021/07/27 05:16:33;;;;;;;8.80;5.55;;;;;;;25.37;50.75;100897.03;5057021;28;20516;-60
2021/07/27 05:19:01;;;;;;;9.65;5.50;;;;;;;25.37;51.32;100897.03;5055769;28;20040;-61
2021/07/27 05:21:27;;;;;;;7.93;4.88;;;;;;;25.42;51.14;100900.78;5057235;28;20036;-61
2021/07/27 05:23:52;;;;;;;9.23;4.75;;;;;;;25.49;51.18;100897.16;5057220;28;20365;-61
2021/07/27 05:26:18;;;;;;;7.30;4.72;;;;;;;25.55;50.69;100894.34;5057242;28;20484;-61
2021/07/27 05:28:43;;;;;;;7.28;4.93;;;;;;;25.65;50.63;100899.34;5057165;28;20087;-61
2021/07/27 05:31:09;;;;;;;9.85;5.50;;;;;;;25.83;50.50;100891.94;5055526;28;20051;-61
2021/07/27 05:33:34;;;;;;;19.40;5.40;;;;;;;25.97;50.63;100881.66;5055609;28;20067;-60
2021/07/27 05:36:00;;;;;;;8.05;5.03;;;;;;;26.07;50.48;100881.13;5056414;28;20057;-61
2021/07/27 05:38:25;;;;;;;10.35;5.20;;;;;;;26.19;50.37;100873.81;5035957;28;20040;-60
2021/07/27 05:40:54;;;;;;;9.13;5.10;;;;;;;26.28;50.04;100883.44;5037278;28;20470;-60
2021/07/27 05:43:20;;;;;;;10.20;5.40;;;;;;;26.33;49.77;100891.81;5036620;28;20025;-60
2021/07/27 05:45:45;;;;;;;13.85;4.93;;;;;;;26.40;50.38;100887.09;5036037;28;20036;-60
2021/07/27 05:48:10;;;;;;;8.73;5.50;;;;;;;26.42;49.75;100883.03;5036833;28;20112;-60
2021/07/27 05:50:36;;;;;;;10.40;5.35;;;;;;;26.48;49.62;100892.28;5035090;28;20029;-60
2021/07/27 05:53:01;;;;;;;11.75;5.50;;;;;;;26.54;49.83;100896.84;5035162;28;20026;-61
2021/07/27 05:55:26;;;;;;;28.63;6.68;;;;;;;26.57;49.66;100894.47;5035579;28;20135;-61
2021/07/27 05:57:52;;;;;;;9.80;5.97;;;;;;;26.61;50.18;100900.31;5035519;28;20032;-60
2021/07/27 06:00:18;;;;;;;10.18;6.60;;;;;;;26.76;49.79;100889.75;5036371;28;20023;-61
2021/07/27 06:02:43;;;;;;;12.70;6.28;;;;;;;26.83;49.28;100887.78;5036481;28;20108;-60
2021/07/27 06:05:09;;;;;;;10.00;6.00;;;;;;;26.95;49.63;100879.56;5036490;28;20056;-61
2021/07/27 06:07:34;;;;;;;10.80;5.85;;;;;;;27.02;49.70;100883.91;5034880;28;20033;-60
2021/07/27 06:10:00;;;;;;;12.27;6.38;;;;;;;27.08;49.32;100882.94;5036247;28;20021;-60
2021/07/27 06:12:25;;;;;;;14.13;6.22;;;;;;;27.10;48.87;100880.81;5036114;28;20030;-60
2021/07/27 06:14:50;;;;;;;12.48;6.78;;;;;;;27.12;48.97;100889.66;5036343;28;20035;-61
2021/07/27 06:17:16;;;;;;;10.75;5.68;;;;;;;27.17;49.51;100895.28;5036064;28;20029;-61
2021/07/27 06:19:41;;;;;;;9.07;6.07;;;;;;;27.15;48.79;100880.94;5036205;28;20022;-61
2021/07/27 06:22:06;;;;;;;8.23;4.93;;;;;;;27.18;49.12;100885.97;5034932;28;20091;-60
2021/07/27 06:24:32;;;;;;;10.45;6.32;;;;;;;27.18;48.75;100885.13;5036363;28;20108;-61
2021/07/27 06:26:57;;;;;;;12.25;7.03;;;;;;;27.24;48.45;100892.44;5035840;28;20025;-61
2021/07/27 06:29:22;;;;;;;11.75;5.63;;;;;;;27.26;48.89;100881.19;5035784;28;20029;-61
2021/07/27 06:31:48;;;;;;;8.98;5.53;;;;;;;27.31;49.28;100884.06;5037847;28;20025;-61
2021/07/27 06:34:13;;;;;;;10.68;5.65;;;;;;;27.38;48.56;100884.78;5045025;28;20461;-61
2021/07/27 06:36:38;;;;;;;11.27;5.47;;;;;;;27.46;48.08;100893.56;5035491;28;20489;-61
2021/07/27 06:39:04;;;;;;;6.72;4.85;;;;;;;27.58;47.88;100891.66;5035838;28;20587;-61
2021/07/27 06:41:29;;;;;;;8.88;5.40;;;;;;;27.73;47.31;100888.41;5035779;28;20032;-61
2021/07/27 06:43:57;;;;;;;7.60;5.85;;;;;;;27.80;48.06;100889.16;5035425;28;20029;-60
2021/07/27 06:46:22;;;;;;;8.98;5.63;;;;;;;27.86;47.96;100888.19;5035695;28;20049;-61
2021/07/27 06:48:47;;;;;;;10.40;5.60;;;;;;;27.92;48.23;100898.22;5035707;28;20551;-61
2021/07/27 06:51:14;;;;;;;10.75;5.45;;;;;;;27.91;48.08;100891.06;5035532;28;20029;-61
2021/07/27 06:53:40;;;;;;;9.35;5.43;;;;;;;27.91;47.67;100890.22;5035396;28;20021;-61
2021/07/27 06:56:07;;;;;;;7.78;4.75;;;;;;;27.90;47.27;100899.53;5035555;28;20553;-61
2021/07/27 06:58:36;;;;;;;8.90;5.20;;;;;;;27.89;47.21;100912.47;5035452;28;20025;-61
2021/07/27 07:01:03;;;;;;;10.98;5.13;;;;;;;27.90;47.33;100913.31;5034596;28;20365;-61
2021/07/27 07:03:28;;;;;;;8.38;5.15;;;;;;;27.93;47.46;100910.06;5035362;28;20025;-61
2021/07/27 07:05:54;;;;;;;7.75;5.20;;;;;;;28.06;46.67;100910.69;5035360;28;20108;-60
2021/07/27 07:08:20;;;;;;;9.35;5.60;;;;;;;28.36;46.87;100905.00;5035652;28;20048;-60
2021/07/27 07:10:45;;;;;;;11.00;5.93;;;;;;;28.68;46.93;100902.63;5035243;28;20529;-61
2021/07/27 07:13:11;;;;;;;9.32;4.65;;;;;;;28.97;45.42;100912.59;5034763;28;20100;-60
2021/07/27 07:15:36;;;;;;;8.40;5.35;;;;;;;29.17;45.97;100907.44;5033632;28;20045;-60
2021/07/27 07:18:02;;;;;;;6.90;4.95;;;;;;;29.32;46.03;100909.63;5035199;28;20025;-61
2021/07/27 07:20:27;;;;;;;10.60;5.07;;;;;;;29.43;45.78;100912.31;5035176;28;20040;-61
2021/07/27 07:22:53;;;;;;;10.93;5.50;;;;;;;29.60;45.81;100912.31;5034993;28;20086;-61
2021/07/27 07:25:18;;;;;;;11.27;6.38;;;;;;;29.57;45.48;100906.44;5033732;28;20466;-61
2021/07/27 07:27:44;;;;;;;9.40;4.80;;;;;;;29.55;46.12;100912.22;5034959;28;20036;-61
2021/07/27 07:30:09;;;;;;;9.20;5.72;;;;;;;29.67;44.92;100913.00;5034770;28;20133;-61
2021/07/27 07:32:35;;;;;;;10.55;4.88;;;;;;;29.79;44.56;100915.63;5034778;28;20462;-61
2021/07/27 07:35:00;;;;;;;7.68;5.47;;;;;;;29.91;45.14;100908.13;5034423;28;20488;-61
2021/07/27 07:37:25;;;;;;;14.95;5.95;;;;;;;30.00;44.61;100906.59;5034245;28;20501;-61
2021/07/27 07:39:51;;;;;;;9.48;5.85;;;;;;;30.20;44.24;100901.34;5034687;28;20148;-61
2021/07/27 07:42:16;;;;;;;7.47;4.55;;;;;;;30.47;44.03;100909.72;5034296;28;20029;-60
2021/07/27 07:44:41;;;;;;;8.88;5.47;;;;;;;30.60;43.94;100902.97;5034284;28;20025;-60
2021/07/27 07:47:07;;;;;;;6.80;4.70;;;;;;;30.78;43.75;100913.69;5034185;28;20032;-61
2021/07/27 07:49:32;;;;;;;8.82;5.35;;;;;;;30.84;43.51;100916.25;5034355;28;20118;-61
2021/07/27 07:51:58;;;;;;;9.20;5.25;;;;;;;30.99;43.33;100910.88;5032947;28;20473;-60
2021/07/27 07:54:27;;;;;;;8.48;5.15;;;;;;;30.99;43.39;100910.06;5034009;28;20382;-61
2021/07/27 07:56:52;;;;;;;10.07;5.22;;;;;;;31.07;43.18;100912.38;5032757;28;20028;-61
2021/07/27 07:59:18;;;;;;;10.43;5.47;;;;;;;31.23;43.00;100913.34;5034568;28;20053;-61
2021/07/27 08:01:48;;;;;;;9.18;5.28;;;;;;;31.45;42.32;100906.59;5033074;28;20052;-61
2021/07/27 08:04:16;;;;;;;8.48;5.20;;;;;;;31.72;42.01;100903.78;5033902;28;20025;-61
2021/07/27 08:06:41;;;;;;;8.18;5.55;;;;;;;31.95;41.54;100903.38;5034458;28;20028;-61
2021/07/27 08:09:07;;;;;;;9.35;5.10;;;;;;;32.15;41.29;100897.13;5032741;28;20528;-62
2021/07/27 08:11:32;;;;;;;8.70;5.18;;;;;;;32.34;40.91;100890.00;5034124;28;20032;-61
2021/07/27 08:13:58;;;;;;;6.97;5.53;;;;;;;32.55;41.80;100885.41;5034006;28;20104;-61
2021/07/27 08:16:24;;;;;;;7.88;5.05;;;;;;;32.84;40.49;100890.19;5033714;28;20109;-61
2021/07/27 08:18:50;;;;;;;6.75;5.15;;;;;;;32.89;41.14;100885.78;5033981;28;20099;-62
2021/07/27 08:21:15;;;;;;;11.73;5.72;;;;;;;32.73;41.58;100894.06;5034011;28;20037;-61
2021/07/27 08:23:45;;;;;;;10.90;5.70;;;;;;;32.62;41.14;100878.50;5033149;28;20513;-61
2021/07/27 08:26:11;;;;;;;8.80;5.07;;;;;;;32.69;40.47;100887.38;5033858;28;20018;-61
2021/07/27 08:28:37;;;;;;;13.27;6.00;;;;;;;32.91;40.58;100889.09;5032354;28;20531;-61
2021/07/27 08:31:02;;;;;;;8.15;5.00;;;;;;;33.20;39.80;100888.31;5033941;28;20026;-61
2021/07/27 08:33:28;;;;;;;9.02;5.70;;;;;;;33.33;39.81;100890.53;5033478;28;20091;-61
2021/07/27 08:35:53;;;;;;;9.15;5.45;;;;;;;33.64;39.81;100894.16;5033363;28;20060;-61
2021/07/27 08:38:19;;;;;;;9.02;4.93;;;;;;;33.95;39.31;100892.16;5032306;28;20057;-62
2021/07/27 08:40:46;;;;;;;7.63;5.63;;;;;;;34.26;38.88;100890.13;5032560;28;20032;-61
2021/07/27 08:43:13;;;;;;;6.40;4.38;;;;;;;34.46;38.20;100885.31;5032312;28;20112;-61
2021/07/27 08:45:38;;;;;;;8.00;5.28;;;;;;;34.49;38.23;100881.97;5033616;28;20092;-62
2021/07/27 08:48:04;;;;;;;8.88;5.03;;;;;;;34.46;38.15;100873.34;5033741;28;20500;-61
2021/07/27 08:50:29;;;;;;;10.70;6.43;;;;;;;34.38;39.31;100871.16;5033560;28;20100;-62
2021/07/27 08:52:55;;;;;;;7.75;5.22;;;;;;;34.35;38.66;100882.84;5033333;28;20116;-61
2021/07/27 08:55:20;;;;;;;6.03;4.97;;;;;;;33.91;39.99;100883.56;5033391;28;20025;-62
2021/07/27 08:57:59;;;;;;;9.45;4.90;;;;;;;33.58;40.30;100878.63;5033589;28;20040;-61
2021/07/27 09:00:25;;;;;;;10.40;5.82;;;;;;;33.75;40.08;100883.88;5033207;28;20032;-62
2021/07/27 09:02:51;;;;;;;7.90;5.43;;;;;;;33.61;39.58;100875.28;5033529;28;20025;-61
2021/07/27 09:05:17;;;;;;;7.57;5.65;;;;;;;33.67;39.95;100871.34;5033505;28;20076;-61
2021/07/27 09:07:42;;;;;;;9.15;5.07;;;;;;;33.48;39.67;100874.97;5033282;28;20029;-61
2021/07/27 09:10:19;;;;;;;8.13;5.28;;;;;;;33.28;40.23;100873.03;5032205;28;20029;-62
2021/07/27 09:13:01;;;;;;;5.93;4.60;;;;;;;33.28;39.53;100884.16;5033180;28;20080;-61
2021/07/27 09:15:29;;;;;;;8.50;5.05;;;;;;;33.13;39.98;100886.94;5033492;28;20032;-61
2021/07/27 09:18:03;;;;;;;9.70;5.75;;;;;;;33.10;40.38;100887.50;5033680;28;20459;-62
2021/07/27 09:20:31;;;;;;;9.40;5.25;;;;;;;33.04;40.25;100888.56;5032157;28;20517;-62
2021/07/27 09:22:58;;;;;;;14.00;6.00;;;;;;;32.91;39.05;100886.31;5031884;28;20064;-60
2021/07/27 09:25:25;;;;;;;9.50;5.78;;;;;;;32.74;40.40;100892.97;5033045;28;20394;-61
2021/07/27 09:28:08;;;;;;;9.45;5.15;;;;;;;32.64;40.24;100894.84;5033406;28;20421;-61
2021/07/27 09:30:35;;;;;;;6.68;4.97;;;;;;;32.71;40.03;100896.28;5033234;28;20033;-61
2021/07/27 09:33:00;;;;;;;8.52;4.85;;;;;;;32.87;39.21;100899.06;5032940;28;20473;-61
2021/07/27 09:35:29;;;;;;;10.70;5.75;;;;;;;33.05;38.91;100896.63;5034285;28;20018;-61
2021/07/27 09:38:08;;;;;;;7.97;5.15;;;;;;;33.02;39.96;100885.22;5037239;28;20113;-61
2021/07/27 09:40:35;;;;;;;10.43;5.13;;;;;;;33.07;39.67;100890.81;5037004;28;20025;-61
2021/07/27 09:43:01;;;;;;;8.27;5.45;;;;;;;33.04;39.43;100899.66;5037049;28;20030;-61
2021/07/27 09:45:26;;;;;;;11.60;4.32;;;;;;;33.00;39.12;100904.13;5036798;28;20022;-61
2021/07/27 09:47:54;;;;;;;7.28;4.60;;;;;;;32.97;38.72;100904.66;5037344;28;20472;-61
2021/07/27 09:50:22;;;;;;;7.20;5.00;;;;;;;33.07;38.89;100904.69;5035159;28;20083;-61
2021/07/27 09:52:47;;;;;;;10.68;4.53;;;;;;;33.15;38.14;100890.25;5036659;28;20022;-62
2021/07/27 09:55:13;;;;;;;5.82;4.35;;;;;;;33.18;38.54;100903.59;5036473;28;20451;-62
2021/07/27 09:57:38;;;;;;;10.05;4.88;;;;;;;33.20;38.88;100904.16;5036827;28;20112;-60
2021/07/27 10:00:05;;;;;;;5.90;4.10;;;;;;;33.14;38.11;100905.28;5036629;28;20021;-61
2021/07/27 10:02:30;;;;;;;7.65;4.63;;;;;;;33.03;38.08;100903.56;5036514;28;20072;-61
2021/07/27 10:04:57;;;;;;;6.70;4.10;;;;;;;32.94;37.91;100910.75;5035291;28;20099;-61
2021/07/27 10:07:29;;;;;;;7.63;4.05;;;;;;;32.90;37.92;100906.84;5035057;28;20470;-61
2021/07/27 10:10:05;;;;;;;7.00;4.15;;;;;;;32.87;38.55;100904.63;5036344;28;20495;-61
2021/07/27 10:12:35;;;;;;;5.95;4.13;;;;;;;32.84;38.47;100906.00;5036339;28;20029;-61
2021/07/27 10:15:15;;;;;;;8.07;4.07;;;;;;;32.82;37.64;100911.84;5036046;28;20385;-61
2021/07/27 10:17:51;;;;;;;6.82;4.25;;;;;;;32.81;38.66;100912.09;5036339;28;20033;-61
2021/07/27 10:20:24;;;;;;;6.95;3.72;;;;;;;32.77;37.42;100911.00;5034686;28;20030;-60
2021/07/27 10:22:49;;;;;;;5.00;4.00;;;;;;;32.82;38.45;100919.34;5036166;28;20025;-62
2021/07/27 10:25:16;;;;;;;8.73;4.65;;;;;;;33.22;37.61;100929.72;5036416;28;20032;-61
2021/07/27 10:27:52;;;;;;;4.85;4.05;;;;;;;33.78;36.12;100927.78;5034766;28;20057;-61
2021/07/27 10:30:32;;;;;;;7.72;4.28;;;;;;;34.44;36.27;100920.94;5036344;28;20025;-61
2021/07/27 10:32:58;;;;;;;5.63;4.20;;;;;;;35.14;35.34;100918.09;5035963;28;20070;-60
2021/07/27 10:35:29;;;;;;;9.48;3.95;;;;;;;35.74;34.47;100923.16;5018189;28;20478;-61
2021/07/27 10:38:14;;;;;;;8.38;4.00;;;;;;;36.02;34.56;100913.97;5035830;28;20033;-60
2021/07/27 10:40:43;;;;;;;6.10;3.92;;;;;;;36.06;34.69;100909.50;5035496;28;20030;-61
2021/07/27 10:43:09;;;;;;;6.32;4.20;;;;;;;36.04;35.00;100917.28;5035486;28;20033;-61
2021/07/27 10:45:35;;;;;;;5.25;3.40;;;;;;;36.09;34.63;100917.25;5035807;28;20028;-61
2021/07/27 10:48:00;;;;;;;7.72;3.97;;;;;;;36.18;34.36;100912.66;5035000;28;20378;-61
2021/07/27 10:50:26;;;;;;;7.07;3.90;;;;;;;36.37;34.15;100914.69;5034319;28;20431;-61
2021/07/27 10:53:06;;;;;;;5.93;3.67;;;;;;;36.31;34.43;100915.88;5035401;28;20029;-62
2021/07/27 10:55:32;;;;;;;4.80;3.60;;;;;;;36.07;34.53;100910.31;5035158;28;20160;-61
2021/07/27 10:58:00;;;;;;;7.35;4.15;;;;;;;36.00;34.10;100913.41;5035498;28;20124;-61
2021/07/27 11:00:30;;;;;;;4.57;3.70;;;;;;;35.97;33.86;100900.06;5035154;28;20021;-61
2021/07/27 11:02:56;;;;;;;9.43;3.72;;;;;;;36.01;34.22;100912.31;5035286;28;20108;-61
2021/07/27 11:05:28;;;;;;;5.70;3.50;;;;;;;36.00;34.24;100921.78;5035201;28;20067;-61
2021/07/27 11:07:54;;;;;;;5.90;4.07;;;;;;;35.97;34.37;100915.97;5035057;28;20492;-61
2021/07/27 11:10:21;;;;;;;6.70;4.05;;;;;;;35.91;33.64;100906.81;5034866;28;20026;-61
2021/07/27 11:12:47;;;;;;;5.78;3.42;;;;;;;35.94;33.72;100911.81;5035320;28;20083;-61
2021/07/27 11:15:23;;;;;;;8.20;3.70;;;;;;;36.09;33.47;100908.91;5034831;28;20033;-61
2021/07/27 11:17:51;;;;;;;7.55;4.13;;;;;;;36.35;33.97;100905.78;5034871;28;20049;-61
2021/07/27 11:20:17;;;;;;;7.93;4.25;;;;;;;36.54;33.50;100903.91;5035232;28;20029;-62
2021/07/27 11:22:46;;;;;;;10.52;4.40;;;;;;;36.79;33.14;100909.13;5034945;28;20444;-61
2021/07/27 11:25:12;;;;;;;7.22;4.18;;;;;;;36.85;32.92;100898.72;5034062;28;20025;-61
2021/07/27 11:27:37;;;;;;;7.50;4.60;;;;;;;37.09;32.86;100891.94;5033703;28;20029;-61
2021/07/27 11:30:05;;;;;;;5.05;3.80;;;;;;;37.58;32.42;100890.56;5034789;28;20394;-61
2021/07/27 11:32:41;;;;;;;7.45;4.25;;;;;;;37.87;32.06;100882.75;5034876;28;20025;-61
2021/07/27 11:35:07;;;;;;;6.50;4.38;;;;;;;38.21;31.54;100883.19;5033266;28;20025;-61
2021/07/27 11:37:33;;;;;;;5.90;3.83;;;;;;;38.40;30.98;100889.53;5034388;28;20084;-61
2021/07/27 11:39:58;;;;;;;6.30;3.85;;;;;;;38.77;31.15;100879.22;5033771;28;20402;-61
2021/07/27 11:42:30;;;;;;;6.47;3.78;;;;;;;38.63;31.26;100884.00;5034698;28;20056;-61
2021/07/27 11:44:57;;;;;;;7.18;3.60;;;;;;;38.14;31.49;100881.94;5034734;28;20048;-61